createdAt,value
2023-04-16T00:02:51.025Z,6.47
2023-04-16T00:05:17.778Z,6.68
2023-04-16T00:10:10.894Z,7.32
2023-04-16T00:12:37.413Z,7.38
2023-04-16T00:17:30.710Z,6.43
2023-04-16T00:19:57.236Z,6.68
2023-04-16T00:24:51.044Z,7.15
2023-04-16T00:27:19.375Z,6.13
2023-04-16T00:29:45.932Z,7.15
2023-04-16T00:32:12.541Z,6.97
2023-04-16T00:37:05.460Z,8.52
2023-04-16T00:41:58.421Z,8.02
2023-04-16T00:46:53.810Z,7.60
2023-04-16T00:49:20.876Z,7.75
2023-04-16T00:51:48.061Z,8.02
2023-04-16T00:54:14.627Z,8.60
2023-04-16T00:56:41.380Z,8.07
2023-04-16T00:59:08.956Z,7.88
2023-04-16T01:01:36.035Z,7.65
2023-04-16T01:04:03.020Z,8.35
2023-04-16T01:06:29.570Z,7.90
2023-04-16T01:11:22.560Z,7.90
2023-04-16T01:13:49.174Z,8.15
2023-04-16T01:16:16.874Z,7.70
2023-04-16T01:18:43.456Z,7.47
2023-04-16T01:21:10.481Z,7.85
2023-04-16T01:23:37.012Z,8.02
2023-04-16T01:26:03.739Z,7.93
2023-04-16T01:30:56.930Z,8.93
2023-04-16T01:33:43.811Z,8.50
2023-04-16T01:36:11.957Z,7.40
2023-04-16T01:38:38.485Z,8.18
2023-04-16T01:43:31.416Z,7.82
2023-04-16T01:48:44.710Z,8.75
2023-04-16T01:51:11.404Z,8.50
2023-04-16T01:53:38.302Z,7.75
2023-04-16T01:56:05.958Z,7.40
2023-04-16T01:58:33.811Z,7.85
2023-04-16T02:01:02.016Z,9.60
2023-04-16T02:03:29.399Z,8.48
2023-04-16T02:05:56.078Z,9.45
2023-04-16T02:10:50.231Z,8.40
2023-04-16T02:13:16.889Z,8.55
2023-04-16T02:15:50.788Z,8.05
2023-04-16T02:18:24.442Z,8.63
2023-04-16T02:20:51.304Z,8.77
2023-04-16T02:23:20.320Z,9.50
2023-04-16T02:25:47.739Z,7.97
2023-04-16T02:28:16.984Z,8.93
2023-04-16T02:30:45.609Z,9.50
2023-04-16T02:33:14.054Z,8.43
2023-04-16T02:35:50.751Z,8.57
2023-04-16T02:38:17.219Z,8.75
2023-04-16T02:40:43.867Z,9.45
2023-04-16T02:43:10.840Z,8.57
2023-04-16T02:48:04.066Z,9.60
2023-04-16T02:50:30.734Z,8.55
2023-04-16T02:52:57.205Z,9.30
2023-04-16T02:57:50.025Z,8.43
2023-04-16T03:02:43.266Z,8.48
2023-04-16T03:05:10.022Z,8.20
2023-04-16T03:07:36.541Z,9.23
2023-04-16T03:12:29.485Z,9.32
2023-04-16T03:17:22.398Z,8.23
2023-04-16T03:22:19.317Z,7.72
2023-04-16T03:24:46.219Z,7.97
2023-04-16T03:29:39.876Z,8.43
2023-04-16T03:32:07.688Z,8.65
2023-04-16T03:37:00.692Z,9.13
2023-04-16T03:39:27.247Z,9.23
2023-04-16T03:44:20.734Z,8.63
2023-04-16T03:46:47.373Z,8.52
2023-04-16T03:49:14.121Z,9.20
2023-04-16T03:51:40.906Z,9.55
2023-04-16T03:56:34.130Z,9.57
2023-04-16T04:01:27.207Z,8.85
2023-04-16T04:06:20.716Z,8.73
2023-04-16T04:08:47.923Z,10.18
2023-04-16T04:11:14.838Z,9.18
2023-04-16T04:13:43.077Z,9.20
2023-04-16T04:18:36.052Z,9.05
2023-04-16T04:21:08.142Z,9.25
2023-04-16T04:23:35.781Z,9.40
2023-04-16T04:26:04.036Z,9.38
2023-04-16T04:28:32.071Z,8.38
2023-04-16T04:31:00.059Z,9.45
2023-04-16T04:33:28.699Z,8.13
2023-04-16T04:35:55.761Z,10.20
2023-04-16T04:38:25.201Z,8.63
2023-04-16T04:40:52.965Z,9.48
2023-04-16T04:43:20.998Z,9.88
2023-04-16T04:45:49.078Z,9.20
2023-04-16T04:48:16.470Z,9.63
2023-04-16T04:50:45.086Z,9.35
2023-04-16T04:53:11.965Z,9.73
2023-04-16T04:55:39.462Z,8.80
2023-04-16T04:58:06.327Z,8.77
2023-04-16T05:00:34.107Z,9.57
2023-04-16T05:03:03.111Z,9.07
2023-04-16T05:05:29.582Z,10.20
2023-04-16T05:10:22.472Z,8.68
2023-04-16T05:15:15.858Z,9.37
2023-04-16T05:17:42.310Z,9.15
2023-04-16T05:22:38.472Z,8.93
2023-04-16T05:27:31.801Z,10.20
2023-04-16T05:32:27.891Z,8.27
2023-04-16T05:34:54.520Z,9.48
2023-04-16T05:39:47.755Z,8.25
2023-04-16T05:42:14.199Z,9.90
2023-04-16T05:47:09.314Z,8.55
2023-04-16T05:49:39.395Z,8.60
2023-04-16T05:52:06.198Z,9.38
2023-04-16T05:54:32.719Z,8.18
2023-04-16T05:59:27.700Z,7.25
2023-04-16T06:01:54.280Z,7.93
2023-04-16T06:06:47.408Z,8.23
2023-04-16T06:11:40.298Z,7.93
2023-04-16T06:16:33.376Z,7.07
2023-04-16T06:19:00.347Z,7.57
2023-04-16T06:21:27.116Z,7.20
2023-04-16T06:23:55.071Z,6.70
2023-04-16T06:26:21.630Z,7.43
2023-04-16T06:28:48.295Z,7.07
2023-04-16T06:31:14.820Z,6.90
2023-04-16T06:36:07.898Z,6.63
2023-04-16T06:41:03.270Z,6.78
2023-04-16T06:43:30.246Z,7.40
2023-04-16T06:45:56.649Z,6.00
2023-04-16T06:50:49.480Z,7.38
2023-04-16T06:55:42.380Z,9.38
2023-04-16T07:00:35.249Z,6.80
2023-04-16T07:05:28.733Z,6.35
2023-04-16T07:10:23.931Z,4.30
2023-04-16T07:15:16.981Z,4.32
2023-04-16T07:17:43.529Z,4.13
2023-04-16T07:22:36.655Z,3.88
2023-04-16T07:27:29.583Z,5.82
2023-04-16T07:29:56.062Z,4.35
2023-04-16T07:32:22.810Z,4.97
2023-04-16T07:34:49.335Z,8.13
2023-04-16T07:39:42.412Z,3.78
2023-04-16T07:44:35.785Z,4.15
2023-04-16T07:47:04.193Z,3.65
2023-04-16T07:49:31.987Z,3.05
2023-04-16T07:54:24.958Z,2.50
2023-04-16T07:56:52.024Z,2.67
2023-04-16T07:59:23.579Z,2.38
2023-04-16T08:01:53.089Z,2.42
2023-04-16T08:04:24.587Z,2.30
2023-04-16T08:06:51.883Z,2.30
2023-04-16T08:09:20.686Z,2.35
2023-04-16T08:11:49.173Z,2.20
2023-04-16T08:14:18.560Z,2.58
2023-04-16T08:16:45.032Z,2.17
2023-04-16T08:21:38.200Z,2.10
2023-04-16T08:26:31.161Z,2.65
2023-04-16T08:31:24.193Z,2.97
2023-04-16T08:33:50.727Z,2.65
2023-04-16T08:38:43.548Z,2.63
2023-04-16T08:43:42.153Z,2.30
2023-04-16T08:46:09.082Z,2.50
2023-04-16T08:48:37.042Z,2.53
2023-04-16T08:51:04.065Z,2.60
2023-04-16T08:53:42.599Z,2.53
2023-04-16T08:56:11.307Z,2.45
2023-04-16T08:58:39.582Z,2.60
2023-04-16T09:01:07.063Z,2.58
2023-04-16T09:03:36.451Z,2.47
2023-04-16T09:06:04.467Z,3.65
2023-04-16T09:08:32.265Z,1.70
2023-04-16T09:10:59.573Z,1.98
2023-04-16T09:13:26.672Z,2.70
2023-04-16T09:15:54.101Z,1.70
2023-04-16T09:18:21.335Z,1.75
2023-04-16T09:20:49.478Z,1.77
2023-04-16T09:23:16.063Z,1.52
2023-04-16T09:28:12.023Z,1.20
2023-04-16T09:30:38.539Z,1.38
2023-04-16T09:35:48.372Z,1.73
2023-04-16T09:38:15.556Z,1.45
2023-04-16T09:40:42.065Z,1.70
2023-04-16T09:45:56.667Z,1.25
2023-04-16T09:48:31.581Z,1.60
2023-04-16T09:50:59.366Z,1.40
2023-04-16T09:53:30.652Z,1.30
2023-04-16T09:56:01.935Z,1.40
2023-04-16T09:58:29.122Z,1.50
2023-04-16T10:00:57.376Z,1.70
2023-04-16T10:03:34.834Z,1.70
2023-04-16T10:06:15.819Z,1.60
2023-04-16T10:08:50.274Z,2.22
2023-04-16T10:11:18.528Z,2.45
2023-04-16T10:13:45.162Z,1.77
2023-04-16T10:16:12.200Z,2.13
2023-04-16T10:18:43.813Z,1.92
2023-04-16T10:21:13.161Z,2.75
2023-04-16T10:23:40.685Z,3.28
2023-04-16T10:26:07.501Z,2.13
2023-04-16T10:28:35.624Z,2.33
2023-04-16T10:31:04.198Z,1.75
2023-04-16T10:33:33.315Z,2.17
2023-04-16T10:36:22.613Z,3.10
2023-04-16T10:38:56.691Z,3.03
2023-04-16T10:41:23.330Z,2.15
2023-04-16T10:43:51.082Z,2.00
2023-04-16T10:46:22.830Z,1.80
2023-04-16T10:48:52.546Z,2.00
2023-04-16T10:51:33.832Z,2.45
2023-04-16T10:54:04.478Z,1.85
2023-04-16T10:56:35.441Z,1.77
2023-04-16T10:59:06.387Z,1.92
2023-04-16T11:01:35.413Z,1.65
2023-04-16T11:04:21.033Z,2.10
2023-04-16T11:07:03.408Z,1.88
2023-04-16T11:09:52.032Z,1.77
2023-04-16T11:12:27.773Z,1.70
2023-04-16T11:14:58.685Z,2.50
2023-04-16T11:17:29.780Z,2.22
2023-04-16T11:19:56.481Z,1.88
2023-04-16T11:22:23.396Z,2.15
2023-04-16T11:24:57.410Z,3.08
2023-04-16T11:27:24.585Z,6.82
2023-04-16T11:30:02.029Z,4.28
2023-04-16T11:32:31.877Z,3.10
2023-04-16T11:34:59.834Z,4.15
2023-04-16T11:37:34.229Z,3.78
2023-04-16T11:40:01.579Z,3.17
2023-04-16T11:42:28.611Z,3.38
2023-04-16T11:44:56.740Z,3.10
2023-04-16T11:47:24.409Z,4.32
2023-04-16T11:49:51.458Z,4.38
2023-04-16T11:52:31.654Z,3.80
2023-04-16T11:54:59.607Z,3.65
2023-04-16T11:57:29.751Z,3.38
2023-04-16T12:00:01.742Z,3.33
2023-04-16T12:02:44.269Z,2.97
2023-04-16T12:05:28.724Z,3.20
2023-04-16T12:07:55.545Z,3.17
2023-04-16T12:10:22.394Z,2.20
2023-04-16T12:12:48.968Z,2.25
2023-04-16T12:17:42.363Z,2.43
2023-04-16T12:20:11.554Z,2.22
2023-04-16T12:22:40.310Z,2.03
2023-04-16T12:25:15.458Z,1.75
2023-04-16T12:27:46.823Z,2.08
2023-04-16T12:30:15.369Z,1.77
2023-04-16T12:32:43.430Z,1.45
2023-04-16T12:35:13.439Z,2.17
2023-04-16T12:37:40.856Z,1.92
2023-04-16T12:40:08.575Z,1.75
2023-04-16T12:42:36.099Z,2.00
2023-04-16T12:45:06.901Z,2.30
2023-04-16T12:47:33.579Z,2.00
2023-04-16T12:52:27.487Z,1.92
2023-04-16T12:54:54.061Z,2.13
2023-04-16T12:59:47.182Z,2.55
2023-04-16T13:04:40.488Z,2.58
2023-04-16T13:07:07.965Z,2.28
2023-04-16T13:09:34.451Z,2.20
2023-04-16T13:14:27.316Z,1.88
2023-04-16T13:19:21.141Z,1.80
2023-04-16T13:21:47.650Z,3.10
2023-04-16T13:26:40.637Z,1.70
2023-04-16T13:31:33.652Z,1.73
2023-04-16T13:34:00.231Z,1.60
2023-04-16T13:36:27.799Z,1.70
2023-04-16T13:38:54.550Z,1.73
2023-04-16T13:41:21.165Z,2.00
2023-04-16T13:46:14.099Z,1.40
2023-04-16T13:51:08.379Z,3.50
2023-04-16T13:53:35.028Z,19.65
2023-04-16T13:56:03.690Z,6.38
2023-04-16T13:58:30.384Z,2.95
2023-04-16T14:00:56.961Z,1.80
2023-04-16T14:05:51.548Z,1.90
2023-04-16T14:10:44.579Z,2.10
2023-04-16T14:18:05.479Z,1.88
2023-04-16T14:20:32.038Z,2.20
2023-04-16T14:25:25.022Z,1.67
2023-04-16T14:30:18.118Z,1.50
2023-04-16T14:35:11.233Z,1.50
2023-04-16T14:37:38.869Z,1.60
2023-04-16T14:40:08.685Z,1.80
2023-04-16T14:42:39.171Z,1.80
2023-04-16T14:45:06.735Z,1.50
2023-04-16T14:47:37.836Z,1.50
2023-04-16T14:50:05.457Z,1.70
2023-04-16T14:52:32.594Z,1.55
2023-04-16T14:54:59.114Z,7.65
2023-04-16T14:59:51.978Z,9.00
2023-04-16T15:02:18.619Z,13.15
2023-04-16T15:04:45.757Z,2.38
2023-04-16T15:07:12.233Z,4.93
2023-04-16T15:12:05.590Z,1.85
2023-04-16T15:14:32.054Z,24.95
2023-04-16T15:16:58.564Z,3.63
2023-04-16T15:21:51.942Z,11.17
2023-04-16T15:24:18.458Z,4.95
2023-04-16T15:26:45.513Z,4.47
2023-04-16T15:29:11.968Z,3.30
2023-04-16T15:34:04.860Z,13.82
2023-04-16T15:36:31.758Z,4.97
2023-04-16T15:38:58.197Z,3.15
2023-04-16T15:41:24.898Z,2.28
2023-04-16T15:43:51.337Z,1.90
2023-04-16T15:46:17.888Z,2.65
2023-04-16T15:51:11.163Z,4.22
2023-04-16T15:53:37.725Z,3.60
2023-04-16T15:58:30.766Z,2.78
2023-04-16T16:00:57.860Z,2.50
2023-04-16T16:03:24.550Z,3.38
2023-04-16T16:05:51.102Z,3.53
2023-04-16T16:10:44.123Z,7.72
2023-04-16T16:15:42.549Z,2.40
2023-04-16T16:18:09.194Z,2.40
2023-04-16T16:20:36.664Z,5.18
2023-04-16T16:23:03.540Z,13.93
2023-04-16T16:25:30.300Z,10.75
2023-04-16T16:27:56.761Z,5.25
2023-04-16T16:32:50.733Z,4.88
2023-04-16T16:35:17.248Z,3.03
2023-04-16T16:40:11.051Z,2.30
2023-04-16T16:42:37.565Z,3.10
2023-04-16T16:47:32.908Z,3.17
2023-04-16T16:50:01.365Z,3.70
2023-04-16T16:52:29.274Z,3.90
2023-04-16T16:54:56.831Z,3.47
2023-04-16T16:57:26.994Z,4.40
2023-04-16T16:59:54.506Z,5.15
2023-04-16T17:02:21.394Z,8.30
2023-04-16T17:04:47.911Z,4.18
2023-04-16T17:09:41.285Z,4.38
2023-04-16T17:12:08.044Z,4.53
2023-04-16T17:14:35.257Z,23.80
2023-04-16T17:17:01.961Z,5.55
2023-04-16T17:19:28.617Z,4.00
2023-04-16T17:24:21.738Z,2.88
2023-04-16T17:29:14.576Z,5.22
2023-04-16T17:34:07.584Z,3.47
2023-04-16T17:36:34.053Z,3.83
2023-04-16T17:39:00.697Z,4.30
2023-04-16T17:41:27.894Z,4.88
2023-04-16T17:46:20.864Z,10.48
2023-04-16T17:51:16.424Z,10.90
2023-04-16T17:53:43.481Z,4.80
2023-04-16T17:56:10.788Z,3.97
2023-04-16T17:58:37.261Z,3.00
2023-04-16T18:03:32.396Z,3.58
2023-04-16T18:05:59.557Z,3.80
2023-04-16T18:08:26.646Z,3.25
2023-04-16T18:10:54.976Z,2.05
2023-04-16T18:13:21.532Z,2.17
2023-04-16T18:18:14.704Z,2.20
2023-04-16T18:23:07.746Z,2.58
2023-04-16T18:28:03.756Z,6.10
2023-04-16T18:30:30.649Z,6.13
2023-04-16T18:33:19.426Z,5.93
2023-04-16T18:35:43.661Z,4.32
2023-04-16T18:40:37.222Z,2.55
2023-04-16T18:43:04.111Z,2.42
2023-04-16T18:45:30.849Z,2.00
2023-04-16T18:48:02.813Z,2.60
2023-04-16T18:50:29.481Z,2.58
2023-04-16T18:55:22.399Z,2.30
2023-04-16T19:00:15.524Z,2.78
2023-04-16T19:02:42.517Z,2.92
2023-04-16T19:05:09.669Z,3.10
2023-04-16T19:07:37.502Z,2.72
2023-04-16T19:10:05.302Z,2.22
2023-04-16T19:12:32.483Z,2.42
2023-04-16T19:14:59.123Z,2.70
2023-04-16T19:17:25.650Z,2.95
2023-04-16T19:19:52.559Z,2.75
2023-04-16T19:24:45.557Z,4.40
2023-04-16T19:27:12.035Z,5.80
2023-04-16T19:29:40.388Z,4.95
2023-04-16T19:32:06.928Z,5.95
2023-04-16T19:34:33.451Z,7.57
2023-04-16T19:36:59.929Z,4.60
2023-04-16T19:41:54.080Z,5.18
2023-04-16T19:46:48.876Z,4.50
2023-04-16T19:49:15.378Z,5.22
2023-04-16T19:54:08.928Z,5.35
2023-04-16T19:56:35.784Z,5.03
2023-04-16T19:59:02.546Z,4.70
2023-04-16T20:01:30.778Z,5.90
2023-04-16T20:03:57.453Z,5.78
2023-04-16T20:06:24.203Z,5.75
2023-04-16T20:08:50.704Z,4.75
2023-04-16T20:13:48.007Z,5.40
2023-04-16T20:16:14.800Z,5.85
2023-04-16T20:18:41.568Z,6.00
2023-04-16T20:21:09.160Z,5.65
2023-04-16T20:23:35.713Z,6.07
2023-04-16T20:28:28.720Z,6.10
2023-04-16T20:33:21.643Z,12.13
2023-04-16T20:38:15.516Z,11.75
2023-04-16T20:40:44.610Z,26.35
2023-04-16T20:43:14.113Z,20.45
2023-04-16T20:45:40.955Z,10.80
2023-04-16T20:48:07.774Z,4.95
2023-04-16T20:50:34.422Z,6.07
2023-04-16T20:55:27.360Z,4.93
2023-04-16T21:00:20.450Z,5.80
2023-04-16T21:02:46.993Z,5.75
2023-04-16T21:05:16.369Z,5.70
2023-04-16T21:07:43.117Z,5.72
2023-04-16T21:10:10.468Z,5.53
2023-04-16T21:12:37.266Z,5.65
2023-04-16T21:15:04.261Z,6.25
2023-04-16T21:17:30.960Z,6.10
2023-04-16T21:19:57.586Z,6.75
2023-04-16T21:22:24.241Z,6.05
2023-04-16T21:24:50.767Z,5.68
2023-04-16T21:29:43.617Z,5.55
2023-04-16T21:34:36.476Z,6.03
2023-04-16T21:39:30.919Z,6.47
2023-04-16T21:41:57.992Z,6.18
2023-04-16T21:44:24.462Z,6.63
2023-04-16T21:49:17.813Z,7.00
2023-04-16T21:54:13.004Z,6.45
2023-04-16T21:56:39.479Z,6.95
2023-04-16T22:17:31.594Z,7.30
2023-04-16T22:20:00.391Z,7.50
2023-04-16T22:22:26.943Z,6.45
2023-04-16T22:24:53.993Z,7.22
2023-04-16T22:29:47.314Z,7.57
2023-04-16T22:32:13.830Z,7.70
2023-04-16T22:37:08.040Z,7.47
2023-04-16T22:39:34.779Z,7.65
2023-04-16T22:42:02.451Z,7.53
2023-04-16T22:44:29.009Z,7.85
2023-04-16T22:49:21.928Z,6.07
2023-04-16T22:54:14.973Z,7.45
2023-04-16T22:56:41.484Z,6.63
2023-04-16T23:01:35.088Z,6.80
2023-04-16T23:04:01.739Z,6.65
2023-04-16T23:06:28.270Z,6.80
2023-04-16T23:11:21.229Z,5.95
2023-04-16T23:16:14.241Z,7.43
2023-04-16T23:18:40.750Z,6.45
2023-04-16T23:23:33.636Z,7.25
2023-04-16T23:28:28.977Z,6.97
2023-04-16T23:33:22.467Z,8.63
2023-04-16T23:35:49.098Z,6.90
2023-04-16T23:38:15.783Z,7.03
2023-04-16T23:40:42.372Z,8.23
2023-04-16T23:45:35.339Z,8.05
2023-04-16T23:48:01.925Z,7.50
2023-04-16T23:50:28.563Z,7.50
2023-04-16T23:55:21.709Z,7.75
2023-04-16T23:57:48.227Z,7.63
